Grande Pointe, Florida
Current Conditions -  °F | °C
As of 8:53 PM on Wednesday 26 Nov 2014 (Local Time) from KECP Reporting Station
Clear Clear  
Wind Chill: 44°   Ceiling: Unl
Heat Index: 44°   Visibility: 10mi
Dew Point: 41°   Wind: 0mph
Humidity: 89%   Direction: NA
Pressure: 30.2"   Gusts: NA
Location:  30.3525°N, 85.9093°W
Report Text: KECP 270253Z 00000KT 10SM CLR 07/05 A3020 RMK AO2 SLP239 T00670050 51006
Loading
Personal Weather Stations






























Interactive Weather Map New forecast layout! Learn more

10-Day Weather Forecast

Advertisements
Track Severe Weather on mobile